Time;durP1;ratioP1;P1;durP2;ratioP2;P2;SDS_P1;SDS_P2;PMS_P1;PMS_P2;Temp;Humidity;BMP_temperature;BMP_pressure;BME280_temperature;BME280_humidity;BME280_pressure;Samples;Min_cycle;Max_cycle;Signal;HPM_P1;HPM_P2
2023/10/19 00:01:27;;;;;;;25.05;15.57;;;;;;;;;;5115436;28;20123;-69
2023/10/19 00:03:55;;;;;;;28.02;15.80;;;;;;;;;;5114285;28;20039;-69
2023/10/19 00:06:23;;;;;;;26.55;14.73;;;;;;;;;;5111816;28;20040;-69
2023/10/19 00:08:52;;;;;;;23.52;15.00;;;;;;;;;;5088581;28;20039;-69
2023/10/19 00:11:26;;;;;;;28.85;15.48;;;;;;;;;;5115263;28;20039;-69
2023/10/19 00:13:57;;;;;;;26.80;15.38;;;;;;;;;;5111965;28;20039;-69
2023/10/19 00:16:29;;;;;;;25.73;15.55;;;;;;;;;;5109524;28;20046;-69
2023/10/19 00:18:59;;;;;;;27.00;16.42;;;;;;;;;;5114315;28;20081;-69
2023/10/19 00:21:25;;;;;;;23.00;15.05;;;;;;;;;;5084219;28;20043;-69
2023/10/19 00:23:57;;;;;;;23.75;15.25;;;;;;;;;;5112070;28;20039;-69
2023/10/19 00:26:29;;;;;;;26.75;16.75;;;;;;;;;;5113995;28;20511;-69
2023/10/19 00:28:58;;;;;;;24.83;15.00;;;;;;;;;;5103099;28;20127;-69
2023/10/19 00:31:28;;;;;;;28.25;15.98;;;;;;;;;;5111804;28;20516;-69
2023/10/19 00:33:55;;;;;;;26.42;16.35;;;;;;;;;;5113266;28;20035;-69
2023/10/19 00:36:22;;;;;;;26.52;16.58;;;;;;;;;;5112230;28;20036;-69
2023/10/19 00:38:56;;;;;;;27.42;16.10;;;;;;;;;;5100817;28;20046;-69
2023/10/19 00:41:29;;;;;;;26.90;16.27;;;;;;;;;;5114140;28;20044;-69
2023/10/19 00:44:03;;;;;;;27.60;16.25;;;;;;;;;;5115235;28;20032;-69
2023/10/19 00:46:32;;;;;;;31.33;17.42;;;;;;;;;;5109566;28;20051;-69
2023/10/19 00:49:00;;;;;;;24.85;16.02;;;;;;;;;;5107907;28;20039;-69
2023/10/19 00:53:55;;;;;;;28.42;16.55;;;;;;;;;;5107563;28;20040;-69
2023/10/19 00:56:23;;;;;;;33.17;16.88;;;;;;;;;;5113714;28;20084;-69
2023/10/19 00:58:53;;;;;;;26.70;16.80;;;;;;;;;;5112221;28;20039;-69
2023/10/19 01:01:22;;;;;;;28.35;16.98;;;;;;;;;;5102622;28;20079;-69
2023/10/19 01:03:52;;;;;;;29.23;17.60;;;;;;;;;;5109310;28;20050;-69
2023/10/19 01:06:20;;;;;;;26.48;17.50;;;;;;;;;;5110080;28;20417;-69
2023/10/19 01:08:46;;;;;;;29.02;18.00;;;;;;;;;;5105720;28;20043;-69
2023/10/19 01:11:15;;;;;;;27.58;17.52;;;;;;;;;;5113480;28;20039;-69
2023/10/19 01:13:44;;;;;;;30.88;17.45;;;;;;;;;;5113373;28;20042;-69
2023/10/19 01:16:20;;;;;;;27.50;16.83;;;;;;;;;;5111855;28;20464;-69
2023/10/19 01:18:46;;;;;;;27.83;17.02;;;;;;;;;;5108254;28;20044;-69
2023/10/19 01:21:12;;;;;;;29.40;16.95;;;;;;;;;;5109814;28;20520;-69
2023/10/19 01:23:38;;;;;;;29.30;17.15;;;;;;;;;;5109377;28;20028;-69
2023/10/19 01:26:08;;;;;;;33.33;17.63;;;;;;;;;;5091030;28;20043;-69
2023/10/19 01:31:07;;;;;;;30.23;18.13;;;;;;;;;;5106875;28;20050;-69
2023/10/19 01:33:37;;;;;;;33.95;18.77;;;;;;;;;;5109149;28;20076;-69
2023/10/19 01:39:09;;;;;;;30.30;17.92;;;;;;;;;;5065200;28;20420;-69
2023/10/19 01:41:35;;;;;;;31.92;18.00;;;;;;;;;;5108805;28;20055;-69
2023/10/19 01:44:04;;;;;;;33.65;18.55;;;;;;;;;;5112613;28;20516;-69
2023/10/19 01:46:33;;;;;;;29.17;17.55;;;;;;;;;;5095143;28;20132;-69
2023/10/19 01:49:02;;;;;;;32.25;18.30;;;;;;;;;;5114012;28;20047;-69
2023/10/19 01:51:29;;;;;;;31.15;18.08;;;;;;;;;;5104007;28;20048;-69
2023/10/19 01:53:55;;;;;;;30.33;17.20;;;;;;;;;;5087305;28;20046;-69
2023/10/19 01:56:21;;;;;;;31.50;18.23;;;;;;;;;;5105497;28;20129;-69
2023/10/19 01:58:48;;;;;;;31.05;18.75;;;;;;;;;;5104492;28;20165;-69
2023/10/19 02:01:20;;;;;;;30.83;18.58;;;;;;;;;;5110097;28;20077;-69
2023/10/19 02:03:46;;;;;;;33.45;19.10;;;;;;;;;;5107749;28;20055;-69
2023/10/19 02:06:17;;;;;;;30.17;17.92;;;;;;;;;;5104367;28;20492;-69
2023/10/19 02:08:50;;;;;;;31.10;18.43;;;;;;;;;;5103814;28;20052;-69
2023/10/19 02:11:20;;;;;;;27.27;17.25;;;;;;;;;;5110137;28;20324;-69
2023/10/19 02:13:46;;;;;;;29.05;17.40;;;;;;;;;;5113679;28;20031;-69
2023/10/19 02:16:14;;;;;;;28.98;17.42;;;;;;;;;;5112896;28;20047;-69
2023/10/19 02:18:41;;;;;;;26.98;16.10;;;;;;;;;;5112597;28;20047;-69
2023/10/19 02:21:07;;;;;;;26.90;15.63;;;;;;;;;;5113236;28;20048;-69
2023/10/19 02:23:36;;;;;;;23.75;15.35;;;;;;;;;;5106104;28;20046;-69
2023/10/19 02:26:03;;;;;;;27.20;16.13;;;;;;;;;;5107958;28;20508;-69
2023/10/19 02:28:32;;;;;;;27.13;16.08;;;;;;;;;;5108319;28;20409;-69
2023/10/19 02:31:11;;;;;;;26.08;15.25;;;;;;;;;;5103539;28;20067;-69
2023/10/19 02:33:37;;;;;;;28.75;16.02;;;;;;;;;;5108215;28;20078;-69
2023/10/19 02:36:03;;;;;;;26.48;16.02;;;;;;;;;;5112521;28;20119;-69
2023/10/19 02:38:30;;;;;;;25.20;15.07;;;;;;;;;;5111012;28;20439;-69
2023/10/19 02:40:56;;;;;;;25.95;15.50;;;;;;;;;;5107640;28;20053;-69
2023/10/19 02:43:24;;;;;;;24.90;14.90;;;;;;;;;;5094761;28;20050;-69
2023/10/19 02:45:51;;;;;;;26.38;15.32;;;;;;;;;;5112646;28;20097;-69
2023/10/19 02:48:17;;;;;;;25.63;14.82;;;;;;;;;;5112814;28;20048;-69
2023/10/19 02:50:43;;;;;;;22.88;14.13;;;;;;;;;;5111634;28;20035;-69
2023/10/19 02:53:13;;;;;;;26.88;15.85;;;;;;;;;;5112859;28;20565;-69
2023/10/19 02:55:40;;;;;;;24.92;15.40;;;;;;;;;;5111863;28;20032;-69
2023/10/19 02:58:06;;;;;;;25.50;14.80;;;;;;;;;;5110893;28;20455;-69
2023/10/19 03:00:33;;;;;;;26.50;15.20;;;;;;;;;;5111404;28;20050;-69
2023/10/19 03:03:00;;;;;;;25.65;15.65;;;;;;;;;;5112410;28;20485;-69
2023/10/19 03:05:26;;;;;;;26.25;15.18;;;;;;;;;;5109498;28;20036;-69
2023/10/19 03:07:53;;;;;;;21.58;13.82;;;;;;;;;;5101795;28;20501;-69
2023/10/19 03:11:03;;;;;;;22.42;14.38;;;;;;;;;;5111637;28;20040;-69
2023/10/19 03:13:15;;;;;;;22.65;13.80;;;;;;;;;;5102385;28;20544;-69
2023/10/19 03:15:42;;;;;;;21.20;13.50;;;;;;;;;;5107463;28;20036;-69
2023/10/19 03:18:08;;;;;;;21.58;14.05;;;;;;;;;;5106895;28;20036;-68
2023/10/19 03:20:38;;;;;;;25.02;14.40;;;;;;;;;;5111062;28;20036;-68
2023/10/19 03:23:04;;;;;;;26.80;15.05;;;;;;;;;;5111613;28;20126;-68
2023/10/19 03:25:50;;;;;;;23.90;15.00;;;;;;;;;;5111136;28;20043;-68
2023/10/19 03:28:17;;;;;;;27.25;15.68;;;;;;;;;;5107937;28;20066;-68
2023/10/19 03:30:43;;;;;;;26.23;15.77;;;;;;;;;;5108135;28;20046;-69
2023/10/19 03:33:10;;;;;;;23.92;14.48;;;;;;;;;;5107397;28;20044;-69
2023/10/19 03:35:38;;;;;;;25.85;15.75;;;;;;;;;;5089313;28;20504;-69
2023/10/19 03:38:14;;;;;;;27.50;15.88;;;;;;;;;;5110173;28;20043;-69
2023/10/19 03:40:39;;;;;;;26.42;15.50;;;;;;;;;;5125651;22;20412;-72
2023/10/19 03:43:16;;;;;;;26.52;15.32;;;;;;;;;;5068427;28;20118;-73
2023/10/19 03:45:49;;;;;;;28.13;16.52;;;;;;;;;;5088163;28;20031;-73
2023/10/19 03:48:17;;;;;;;27.55;16.27;;;;;;;;;;5071433;28;20490;-73
2023/10/19 03:50:43;;;;;;;27.70;16.35;;;;;;;;;;5073559;28;20036;-72
2023/10/19 03:53:12;;;;;;;27.67;16.10;;;;;;;;;;5068333;28;20039;-73
2023/10/19 03:55:38;;;;;;;28.77;15.35;;;;;;;;;;5073212;28;20100;-72
2023/10/19 03:58:04;;;;;;;27.77;15.98;;;;;;;;;;5073114;28;20136;-72
2023/10/19 04:00:33;;;;;;;28.13;15.65;;;;;;;;;;5070965;28;20748;-73
2023/10/19 04:02:59;;;;;;;29.00;16.98;;;;;;;;;;5087567;28;20051;-72
2023/10/19 04:05:28;;;;;;;29.58;16.80;;;;;;;;;;5053582;28;20487;-72
2023/10/19 04:07:57;;;;;;;28.40;16.70;;;;;;;;;;5090128;28;20493;-72
2023/10/19 04:13:02;;;;;;;25.90;16.15;;;;;;;;;;5090904;28;20150;-72
2023/10/19 04:15:29;;;;;;;26.02;14.90;;;;;;;;;;5090646;28;20585;-72
2023/10/19 04:17:58;;;;;;;25.92;15.55;;;;;;;;;;5086953;28;20028;-72
2023/10/19 04:23:15;;;;;;;28.33;15.88;;;;;;;;;;5094567;28;20079;-72
2023/10/19 04:25:41;;;;;;;25.52;15.45;;;;;;;;;;5095436;28;20424;-72
2023/10/19 04:28:09;;;;;;;25.90;14.75;;;;;;;;;;5094442;28;20367;-72
2023/10/19 04:30:36;;;;;;;27.95;15.15;;;;;;;;;;5076652;28;20076;-72
2023/10/19 04:33:03;;;;;;;25.55;15.32;;;;;;;;;;5094370;28;20036;-72
2023/10/19 04:35:30;;;;;;;24.00;14.05;;;;;;;;;;5094914;28;20092;-72
2023/10/19 04:37:56;;;;;;;26.88;14.45;;;;;;;;;;5091538;28;20059;-72
2023/10/19 04:40:23;;;;;;;26.55;14.27;;;;;;;;;;5075856;28;20090;-72
2023/10/19 04:42:51;;;;;;;26.02;14.20;;;;;;;;;;5094538;28;20053;-73
2023/10/19 04:45:17;;;;;;;23.05;13.65;;;;;;;;;;5094995;28;20043;-72
2023/10/19 04:47:43;;;;;;;25.10;14.00;;;;;;;;;;5093591;28;20036;-72
2023/10/19 04:50:10;;;;;;;21.27;13.40;;;;;;;;;;5093564;28;20048;-72
2023/10/19 04:52:36;;;;;;;20.35;12.95;;;;;;;;;;5094826;28;20044;-72
2023/10/19 04:55:02;;;;;;;20.73;12.32;;;;;;;;;;5088808;28;20044;-72
2023/10/19 04:57:28;;;;;;;23.60;12.85;;;;;;;;;;5092434;28;21005;-72
2023/10/19 04:59:55;;;;;;;19.40;12.48;;;;;;;;;;5093762;28;20135;-72
2023/10/19 05:02:21;;;;;;;22.33;13.07;;;;;;;;;;5093487;28;20666;-72
2023/10/19 05:04:47;;;;;;;21.33;12.25;;;;;;;;;;5076647;28;20063;-72
2023/10/19 05:07:16;;;;;;;22.05;12.75;;;;;;;;;;5075927;28;20048;-73
2023/10/19 05:09:42;;;;;;;21.25;12.55;;;;;;;;;;5093473;28;20135;-73
2023/10/19 05:12:11;;;;;;;19.35;12.50;;;;;;;;;;5093165;28;20071;-73
2023/10/19 05:14:38;;;;;;;18.50;11.93;;;;;;;;;;5075940;28;20115;-73
2023/10/19 05:17:08;;;;;;;18.25;11.85;;;;;;;;;;5093544;28;20119;-73
2023/10/19 05:19:35;;;;;;;19.88;11.73;;;;;;;;;;5074853;28;20047;-73
2023/10/19 05:22:02;;;;;;;18.90;11.88;;;;;;;;;;5075300;28;20052;-72
2023/10/19 05:24:28;;;;;;;21.13;11.95;;;;;;;;;;5072596;28;20043;-73
2023/10/19 05:26:54;;;;;;;19.60;12.38;;;;;;;;;;5092534;28;20089;-73
2023/10/19 05:29:20;;;;;;;18.90;11.77;;;;;;;;;;5073865;28;20571;-73
2023/10/19 05:31:47;;;;;;;18.63;11.35;;;;;;;;;;5093590;28;20043;-73
2023/10/19 05:34:13;;;;;;;19.58;11.98;;;;;;;;;;5088411;28;20036;-73
2023/10/19 05:36:45;;;;;;;18.08;11.73;;;;;;;;;;5093774;28;20058;-73
2023/10/19 05:39:11;;;;;;;16.98;11.65;;;;;;;;;;5088505;28;20104;-73
2023/10/19 05:41:38;;;;;;;18.65;12.63;;;;;;;;;;5092623;28;20032;-73
2023/10/19 05:44:04;;;;;;;18.55;11.20;;;;;;;;;;5092404;28;21413;-73
2023/10/19 05:46:31;;;;;;;20.92;12.40;;;;;;;;;;5091228;28;20139;-73
2023/10/19 05:48:58;;;;;;;18.90;12.05;;;;;;;;;;5092953;28;20085;-73
2023/10/19 05:51:24;;;;;;;18.77;11.90;;;;;;;;;;5091438;28;20035;-73
2023/10/19 05:54:01;;;;;;;18.67;11.75;;;;;;;;;;5074721;28;20052;-73
2023/10/19 05:56:27;;;;;;;19.63;12.50;;;;;;;;;;5093343;28;20448;-73
2023/10/19 05:58:53;;;;;;;19.13;12.43;;;;;;;;;;5093310;28;20040;-72
2023/10/19 06:01:19;;;;;;;16.60;11.30;;;;;;;;;;5092603;28;20055;-73
2023/10/19 06:03:45;;;;;;;19.50;12.05;;;;;;;;;;5090395;28;20119;-73
2023/10/19 06:06:12;;;;;;;18.30;11.38;;;;;;;;;;5072610;28;20105;-72
2023/10/19 06:08:38;;;;;;;21.98;14.75;;;;;;;;;;5091724;28;20512;-72
2023/10/19 06:11:04;;;;;;;130.20;29.58;;;;;;;;;;5071605;28;20052;-72
2023/10/19 06:13:30;;;;;;;25.90;16.20;;;;;;;;;;5090792;28;20036;-72
2023/10/19 06:15:56;;;;;;;361.58;43.40;;;;;;;;;;5074691;28;20043;-72
2023/10/19 06:18:22;;;;;;;190.27;26.33;;;;;;;;;;5091100;28;20035;-72
2023/10/19 06:20:50;;;;;;;38.97;16.95;;;;;;;;;;5074466;28;20044;-72
2023/10/19 06:23:17;;;;;;;20.73;13.15;;;;;;;;;;5092601;28;20111;-72
2023/10/19 06:25:44;;;;;;;52.13;17.35;;;;;;;;;;5091465;28;20067;-73
2023/10/19 06:28:13;;;;;;;22.25;13.95;;;;;;;;;;5081753;28;20059;-73
2023/10/19 06:30:40;;;;;;;21.40;13.27;;;;;;;;;;5084069;28;20043;-73
2023/10/19 06:33:06;;;;;;;35.40;14.65;;;;;;;;;;5085101;28;20376;-72
2023/10/19 06:35:33;;;;;;;21.45;13.77;;;;;;;;;;5088549;28;20036;-73
2023/10/19 06:37:59;;;;;;;24.25;14.23;;;;;;;;;;5071975;28;20048;-73
2023/10/19 06:40:26;;;;;;;20.27;13.50;;;;;;;;;;5088014;28;20130;-73
2023/10/19 06:42:52;;;;;;;22.25;14.10;;;;;;;;;;5081005;28;20044;-73
2023/10/19 06:45:18;;;;;;;22.40;13.48;;;;;;;;;;5070602;28;20043;-73
2023/10/19 06:47:46;;;;;;;21.13;13.93;;;;;;;;;;5087117;28;20549;-73
2023/10/19 06:50:15;;;;;;;20.60;13.65;;;;;;;;;;5068029;28;20043;-73
2023/10/19 06:52:42;;;;;;;22.73;13.93;;;;;;;;;;5086791;28;20071;-73
2023/10/19 06:55:16;;;;;;;23.88;14.70;;;;;;;;;;5091582;28;20044;-72
2023/10/19 06:57:46;;;;;;;24.73;15.40;;;;;;;;;;5091424;28;20076;-72
2023/10/19 07:00:18;;;;;;;22.35;14.82;;;;;;;;;;5088283;28;20036;-72
2023/10/19 07:02:44;;;;;;;23.15;15.48;;;;;;;;;;5089700;28;20047;-73
2023/10/19 07:05:11;;;;;;;24.58;15.73;;;;;;;;;;5086110;28;20044;-73
2023/10/19 07:07:39;;;;;;;26.73;16.20;;;;;;;;;;5073786;28;20048;-73
2023/10/19 07:10:06;;;;;;;24.88;15.35;;;;;;;;;;5090678;28;20058;-72
2023/10/19 07:12:32;;;;;;;24.70;15.55;;;;;;;;;;5090218;28;20040;-72
2023/10/19 07:15:00;;;;;;;25.17;15.27;;;;;;;;;;5090482;28;20040;-72
2023/10/19 07:17:27;;;;;;;24.25;15.88;;;;;;;;;;5072851;28;20082;-72
2023/10/19 07:19:53;;;;;;;25.70;16.15;;;;;;;;;;5089005;28;20458;-72
2023/10/19 07:22:22;;;;;;;29.52;16.95;;;;;;;;;;5091486;28;20048;-72
2023/10/19 07:24:49;;;;;;;27.60;16.88;;;;;;;;;;5087613;28;20115;-72
2023/10/19 07:27:18;;;;;;;22.23;14.27;;;;;;;;;;5089345;28;20047;-72
2023/10/19 07:29:47;;;;;;;24.63;15.50;;;;;;;;;;5090550;28;20090;-72
2023/10/19 07:32:16;;;;;;;36.90;19.10;;;;;;;;;;5085964;28;20081;-72
2023/10/19 07:34:44;;;;;;;30.17;17.52;;;;;;;;;;5087952;28;20071;-73
2023/10/19 07:37:14;;;;;;;29.75;17.73;;;;;;;;;;5087320;28;20039;-73
2023/10/19 07:39:42;;;;;;;37.47;19.13;;;;;;;;;;5089612;28;20055;-73
2023/10/19 07:42:08;;;;;;;29.27;16.77;;;;;;;;;;5073056;28;20070;-72
2023/10/19 07:44:34;;;;;;;33.55;18.05;;;;;;;;;;5089440;28;20077;-72
2023/10/19 07:47:00;;;;;;;39.25;20.20;;;;;;;;;;5088439;28;20044;-72
2023/10/19 07:49:26;;;;;;;35.03;19.08;;;;;;;;;;5087551;28;20093;-72
2023/10/19 07:51:52;;;;;;;35.40;18.77;;;;;;;;;;5091029;28;20036;-72
2023/10/19 07:54:18;;;;;;;34.17;19.08;;;;;;;;;;5087885;28;20044;-73
2023/10/19 07:56:44;;;;;;;34.13;18.52;;;;;;;;;;5071943;28;20041;-72
2023/10/19 07:59:12;;;;;;;30.90;17.73;;;;;;;;;;5091703;28;20727;-72
2023/10/19 08:01:38;;;;;;;35.70;19.63;;;;;;;;;;5095146;28;20046;-71
2023/10/19 08:04:05;;;;;;;42.33;20.65;;;;;;;;;;5094267;28;20036;-72
2023/10/19 08:06:31;;;;;;;36.10;19.50;;;;;;;;;;5094025;28;20040;-72
2023/10/19 08:08:58;;;;;;;40.58;18.98;;;;;;;;;;5094410;28;20040;-72
2023/10/19 08:11:24;;;;;;;38.97;20.48;;;;;;;;;;5089883;28;20094;-72
2023/10/19 08:13:50;;;;;;;34.65;19.35;;;;;;;;;;5095056;28;20040;-73
2023/10/19 08:16:16;;;;;;;38.90;20.25;;;;;;;;;;5094378;28;20082;-73
2023/10/19 08:18:43;;;;;;;40.97;20.35;;;;;;;;;;5094747;28;20120;-73
2023/10/19 08:21:09;;;;;;;34.67;19.63;;;;;;;;;;5073896;28;20089;-73
2023/10/19 08:23:35;;;;;;;35.25;19.92;;;;;;;;;;5093335;28;20101;-72
2023/10/19 08:26:01;;;;;;;37.53;20.38;;;;;;;;;;5094710;28;20032;-72
2023/10/19 08:28:27;;;;;;;36.40;19.77;;;;;;;;;;5090780;28;20024;-72
2023/10/19 08:30:56;;;;;;;43.53;21.38;;;;;;;;;;5092518;28;20119;-72
2023/10/19 08:33:26;;;;;;;40.88;20.95;;;;;;;;;;5076265;28;20094;-72
2023/10/19 08:35:56;;;;;;;35.90;20.55;;;;;;;;;;5091451;28;20482;-72
2023/10/19 08:38:23;;;;;;;38.80;21.05;;;;;;;;;;5090008;28;20076;-72
2023/10/19 08:40:50;;;;;;;36.17;21.42;;;;;;;;;;5093061;28;20055;-72
2023/10/19 08:43:18;;;;;;;39.30;22.20;;;;;;;;;;5090591;28;20055;-73
2023/10/19 08:45:44;;;;;;;41.35;20.60;;;;;;;;;;5093896;28;20075;-72
2023/10/19 08:48:11;;;;;;;39.90;21.45;;;;;;;;;;5093028;28;20047;-72
2023/10/19 08:50:37;;;;;;;38.83;21.63;;;;;;;;;;5058556;28;20069;-72
2023/10/19 08:53:04;;;;;;;40.08;19.85;;;;;;;;;;5074574;28;20117;-72
2023/10/19 08:55:30;;;;;;;42.10;20.95;;;;;;;;;;5074688;28;20032;-72
2023/10/19 08:57:58;;;;;;;37.78;20.20;;;;;;;;;;5075199;28;20036;-72
2023/10/19 09:00:27;;;;;;;36.85;19.75;;;;;;;;;;5093894;28;20043;-72
2023/10/19 09:02:56;;;;;;;36.03;19.63;;;;;;;;;;5073818;28;20046;-72
2023/10/19 09:05:22;;;;;;;33.83;19.20;;;;;;;;;;5070495;28;20106;-72
2023/10/19 09:07:55;;;;;;;35.45;19.38;;;;;;;;;;5074029;28;20055;-72
2023/10/19 09:10:22;;;;;;;33.33;19.30;;;;;;;;;;5073996;28;20121;-72
2023/10/19 09:13:06;;;;;;;35.35;19.20;;;;;;;;;;5076074;28;20069;-72
2023/10/19 09:15:35;;;;;;;34.42;19.42;;;;;;;;;;5075449;28;20044;-72
2023/10/19 09:18:18;;;;;;;37.50;18.80;;;;;;;;;;5058894;28;20405;-72
2023/10/19 09:20:52;;;;;;;35.72;20.10;;;;;;;;;;5075425;28;20048;-72
2023/10/19 09:23:19;;;;;;;36.63;20.10;;;;;;;;;;5071203;28;20048;-72
2023/10/19 09:25:45;;;;;;;39.80;19.40;;;;;;;;;;5089825;28;20493;-72
2023/10/19 09:28:13;;;;;;;36.33;19.33;;;;;;;;;;5075236;28;20058;-72
2023/10/19 09:30:40;;;;;;;35.40;19.55;;;;;;;;;;5074231;28;20048;-72
2023/10/19 09:33:07;;;;;;;38.90;19.92;;;;;;;;;;5092966;28;20040;-72
2023/10/19 09:35:33;;;;;;;37.67;21.17;;;;;;;;;;5092566;28;20079;-72
2023/10/19 09:38:00;;;;;;;35.97;19.85;;;;;;;;;;5092853;28;20040;-72
2023/10/19 09:40:29;;;;;;;36.92;21.42;;;;;;;;;;5131967;22;20056;-62
2023/10/19 09:42:57;;;;;;;38.80;21.60;;;;;;;;;;5089792;28;20071;-62
2023/10/19 09:45:25;;;;;;;37.42;21.08;;;;;;;;;;5074370;28;20048;-62
2023/10/19 09:47:51;;;;;;;38.85;21.38;;;;;;;;;;5071008;28;20457;-62
2023/10/19 09:50:18;;;;;;;38.50;20.77;;;;;;;;;;5069224;28;20280;-62
2023/10/19 09:52:44;;;;;;;35.80;21.52;;;;;;;;;;5068680;28;20443;-62
2023/10/19 09:55:22;;;;;;;38.13;21.33;;;;;;;;;;5047412;28;20064;-62
2023/10/19 09:57:57;;;;;;;35.03;19.75;;;;;;;;;;5069277;28;20496;-62
2023/10/19 10:00:30;;;;;;;39.58;20.77;;;;;;;;;;5070619;28;20091;-62
2023/10/19 10:02:56;;;;;;;42.95;21.02;;;;;;;;;;5041209;28;20059;-61
2023/10/19 10:05:41;;;;;;;40.55;21.52;;;;;;;;;;5070669;28;20404;-62
2023/10/19 10:08:34;;;;;;;40.08;20.35;;;;;;;;;;5067177;28;20048;-62
2023/10/19 10:11:13;;;;;;;42.53;21.63;;;;;;;;;;5049102;28;20059;-62
2023/10/19 10:13:39;;;;;;;40.15;20.67;;;;;;;;;;5069005;28;20047;-62
2023/10/19 10:16:06;;;;;;;39.53;20.75;;;;;;;;;;5070318;28;20066;-62
2023/10/19 10:18:34;;;;;;;36.15;20.63;;;;;;;;;;5071116;28;20032;-61
2023/10/19 10:21:15;;;;;;;44.03;20.55;;;;;;;;;;5066790;28;20041;-62
2023/10/19 10:23:48;;;;;;;43.90;21.38;;;;;;;;;;5070795;28;20552;-62
2023/10/19 10:26:15;;;;;;;36.67;19.70;;;;;;;;;;5062631;28;20045;-62
2023/10/19 10:28:43;;;;;;;36.33;19.63;;;;;;;;;;5069433;28;20045;-62
2023/10/19 10:31:16;;;;;;;36.60;20.52;;;;;;;;;;5070717;28;20139;-61
2023/10/19 10:33:46;;;;;;;36.75;19.77;;;;;;;;;;5071269;28;20165;-62
2023/10/19 10:36:16;;;;;;;34.92;19.88;;;;;;;;;;5065188;28;20064;-62
2023/10/19 10:38:43;;;;;;;38.90;20.85;;;;;;;;;;5071331;28;20044;-62
2023/10/19 10:41:12;;;;;;;35.28;20.33;;;;;;;;;;5069256;28;20422;-62
2023/10/19 10:43:49;;;;;;;36.95;20.02;;;;;;;;;;5070949;28;20043;-62
2023/10/19 10:46:16;;;;;;;38.60;21.30;;;;;;;;;;5065242;28;20041;-61
2023/10/19 10:48:42;;;;;;;37.97;20.67;;;;;;;;;;5070072;28;20039;-62
2023/10/19 10:51:19;;;;;;;39.90;21.98;;;;;;;;;;5070960;28;20389;-62
2023/10/19 10:53:48;;;;;;;39.42;21.15;;;;;;;;;;5071135;28;20033;-62
2023/10/19 10:56:15;;;;;;;37.97;20.70;;;;;;;;;;5066598;28;20048;-62
2023/10/19 10:58:41;;;;;;;36.22;20.30;;;;;;;;;;5069104;28;20523;-62
2023/10/19 11:01:07;;;;;;;41.92;22.20;;;;;;;;;;5070584;28;20037;-62
2023/10/19 11:03:33;;;;;;;39.42;21.15;;;;;;;;;;5063965;28;20048;-62
2023/10/19 11:06:07;;;;;;;42.00;22.70;;;;;;;;;;5068854;28;20036;-62
2023/10/19 11:08:34;;;;;;;38.65;21.80;;;;;;;;;;5069692;28;20115;-62
2023/10/19 11:11:07;;;;;;;36.05;20.88;;;;;;;;;;5069922;28;20036;-62
2023/10/19 11:13:34;;;;;;;36.35;22.50;;;;;;;;;;5070818;28;20040;-62
2023/10/19 11:16:01;;;;;;;38.38;20.80;;;;;;;;;;5070133;28;20400;-62
2023/10/19 11:18:40;;;;;;;32.50;19.27;;;;;;;;;;5069039;28;20036;-62
2023/10/19 11:21:10;;;;;;;35.22;20.95;;;;;;;;;;5069191;28;20043;-62
2023/10/19 11:23:46;;;;;;;41.10;20.63;;;;;;;;;;5070496;28;20044;-63
2023/10/19 11:26:22;;;;;;;39.40;21.38;;;;;;;;;;5062231;28;20173;-62
2023/10/19 11:28:57;;;;;;;38.80;21.60;;;;;;;;;;5069896;28;20412;-62
2023/10/19 11:31:23;;;;;;;40.25;21.95;;;;;;;;;;5068730;28;20450;-63
2023/10/19 11:33:51;;;;;;;42.03;22.95;;;;;;;;;;5050083;28;20044;-62
2023/10/19 11:36:17;;;;;;;35.92;21.13;;;;;;;;;;5051589;28;20076;-62
2023/10/19 11:38:44;;;;;;;38.25;24.10;;;;;;;;;;5070354;28;20075;-62
2023/10/19 11:41:10;;;;;;;39.83;22.15;;;;;;;;;;5066601;28;20507;-62
2023/10/19 11:43:37;;;;;;;35.38;21.27;;;;;;;;;;5068666;28;20048;-62
2023/10/19 11:46:06;;;;;;;37.20;21.33;;;;;;;;;;5070476;28;20068;-62
2023/10/19 11:48:36;;;;;;;42.25;21.83;;;;;;;;;;5049543;28;20037;-62
2023/10/19 11:51:03;;;;;;;39.75;23.02;;;;;;;;;;5067919;28;20041;-62
2023/10/19 11:53:32;;;;;;;39.60;23.17;;;;;;;;;;5069174;28;20098;-63
2023/10/19 11:55:59;;;;;;;35.83;21.10;;;;;;;;;;5069049;28;20085;-63
2023/10/19 11:58:25;;;;;;;35.47;21.55;;;;;;;;;;5067838;28;20044;-62
2023/10/19 12:00:51;;;;;;;37.80;22.45;;;;;;;;;;5070058;28;20047;-62
2023/10/19 12:03:19;;;;;;;39.03;23.27;;;;;;;;;;5070385;28;20044;-63
2023/10/19 12:05:45;;;;;;;38.60;24.13;;;;;;;;;;5070877;28;20473;-62
2023/10/19 12:08:11;;;;;;;38.80;23.23;;;;;;;;;;5060218;28;20045;-62
2023/10/19 12:10:38;;;;;;;38.65;22.15;;;;;;;;;;5069205;28;20124;-62
2023/10/19 12:13:05;;;;;;;36.25;21.73;;;;;;;;;;5070711;28;20067;-62
2023/10/19 12:15:32;;;;;;;34.60;22.17;;;;;;;;;;5070564;28;20036;-62
2023/10/19 12:17:58;;;;;;;41.90;23.45;;;;;;;;;;5066493;28;20408;-61
2023/10/19 12:20:24;;;;;;;34.83;21.67;;;;;;;;;;5070107;28;20052;-62
2023/10/19 12:22:53;;;;;;;33.20;20.77;;;;;;;;;;5069914;28;20057;-62
2023/10/19 12:25:20;;;;;;;33.30;21.08;;;;;;;;;;5050548;28;20381;-62
2023/10/19 12:27:46;;;;;;;30.67;21.13;;;;;;;;;;5051439;28;20048;-62
2023/10/19 12:30:22;;;;;;;33.90;21.48;;;;;;;;;;5062685;28;20039;-62
2023/10/19 12:32:52;;;;;;;32.83;20.45;;;;;;;;;;5065276;28;20119;-62
2023/10/19 12:35:24;;;;;;;35.38;21.58;;;;;;;;;;5070475;28;20411;-62
2023/10/19 12:37:53;;;;;;;37.70;22.05;;;;;;;;;;5052262;28;20048;-63
2023/10/19 12:40:29;;;;;;;32.08;20.30;;;;;;;;;;5069064;28;20466;-63
2023/10/19 12:42:55;;;;;;;33.75;20.20;;;;;;;;;;5069887;28;20101;-63
2023/10/19 12:45:25;;;;;;;33.47;21.42;;;;;;;;;;5074052;28;20044;-63
2023/10/19 12:47:52;;;;;;;34.13;19.30;;;;;;;;;;5073576;28;20412;-64
2023/10/19 12:50:23;;;;;;;30.08;20.13;;;;;;;;;;5071519;28;20452;-64
2023/10/19 12:52:52;;;;;;;30.42;19.45;;;;;;;;;;5072041;28;20063;-63
2023/10/19 12:55:19;;;;;;;30.77;19.00;;;;;;;;;;5072545;28;20399;-63
2023/10/19 12:57:45;;;;;;;30.08;19.48;;;;;;;;;;5071074;28;20475;-64
2023/10/19 13:00:23;;;;;;;28.38;18.33;;;;;;;;;;5061991;28;20128;-64
2023/10/19 13:02:50;;;;;;;34.50;19.40;;;;;;;;;;5052439;28;20041;-63
2023/10/19 13:05:18;;;;;;;32.22;19.35;;;;;;;;;;5073721;28;20048;-63
2023/10/19 13:07:44;;;;;;;31.40;19.02;;;;;;;;;;5073532;28;20043;-63
2023/10/19 13:10:13;;;;;;;29.50;19.92;;;;;;;;;;5066236;28;20120;-63
2023/10/19 13:12:40;;;;;;;34.83;20.40;;;;;;;;;;5050783;28;20051;-63
2023/10/19 13:15:12;;;;;;;29.65;19.42;;;;;;;;;;5069099;28;20060;-64
2023/10/19 13:17:38;;;;;;;32.00;19.38;;;;;;;;;;5054291;28;20116;-64
2023/10/19 13:20:16;;;;;;;30.95;19.55;;;;;;;;;;5073177;28;20448;-63
2023/10/19 13:22:42;;;;;;;36.28;20.30;;;;;;;;;;5072309;28;20111;-64
2023/10/19 13:25:12;;;;;;;33.05;20.20;;;;;;;;;;5072724;28;20066;-63
2023/10/19 13:27:42;;;;;;;33.83;19.50;;;;;;;;;;5068579;28;20098;-64
2023/10/19 13:30:11;;;;;;;33.47;21.05;;;;;;;;;;5065802;28;20033;-63
2023/10/19 13:32:38;;;;;;;33.33;20.90;;;;;;;;;;5072518;28;20063;-62
2023/10/19 13:35:04;;;;;;;41.53;20.95;;;;;;;;;;5069533;28;20040;-63
2023/10/19 13:37:30;;;;;;;35.78;21.67;;;;;;;;;;5069276;28;20040;-63
2023/10/19 13:39:58;;;;;;;39.38;21.92;;;;;;;;;;5072095;28;20436;-63
2023/10/19 13:42:24;;;;;;;36.67;21.67;;;;;;;;;;5073059;28;20044;-63
2023/10/19 13:44:50;;;;;;;35.53;21.45;;;;;;;;;;5069055;28;20400;-63
2023/10/19 13:47:16;;;;;;;35.05;20.65;;;;;;;;;;5071842;28;20032;-63
2023/10/19 13:49:42;;;;;;;33.92;21.40;;;;;;;;;;5070472;28;20043;-63
2023/10/19 13:52:08;;;;;;;35.58;21.15;;;;;;;;;;5072542;28;20377;-63
2023/10/19 13:54:35;;;;;;;38.53;21.63;;;;;;;;;;5068223;28;20033;-63
2023/10/19 13:57:01;;;;;;;31.95;20.80;;;;;;;;;;5046962;28;20058;-64
2023/10/19 13:59:33;;;;;;;36.83;20.52;;;;;;;;;;5071261;28;20067;-63
2023/10/19 14:01:59;;;;;;;34.22;20.00;;;;;;;;;;5068966;28;20313;-63
2023/10/19 14:04:25;;;;;;;36.13;20.25;;;;;;;;;;5069077;28;20047;-64
2023/10/19 14:06:52;;;;;;;36.25;20.13;;;;;;;;;;5071100;28;20445;-64
2023/10/19 14:09:18;;;;;;;33.67;20.40;;;;;;;;;;5070643;28;20045;-64
2023/10/19 14:11:44;;;;;;;37.17;20.38;;;;;;;;;;5069926;28;20386;-64
2023/10/19 14:14:11;;;;;;;35.08;20.48;;;;;;;;;;5069585;28;20039;-63
2023/10/19 14:16:39;;;;;;;35.35;20.13;;;;;;;;;;5070879;28;20058;-64
2023/10/19 14:19:05;;;;;;;39.03;22.73;;;;;;;;;;5071007;28;20079;-64
2023/10/19 14:21:32;;;;;;;39.50;22.23;;;;;;;;;;5070675;28;20492;-63
2023/10/19 14:23:58;;;;;;;37.28;22.33;;;;;;;;;;5070712;28;20049;-64
2023/10/19 14:26:24;;;;;;;40.33;23.65;;;;;;;;;;5052890;28;20048;-64
2023/10/19 14:28:50;;;;;;;37.08;20.60;;;;;;;;;;5071465;28;20037;-64
2023/10/19 14:31:16;;;;;;;38.65;21.60;;;;;;;;;;5071073;28;20047;-64
2023/10/19 14:33:42;;;;;;;40.15;21.38;;;;;;;;;;5068181;28;20042;-64
2023/10/19 14:36:09;;;;;;;35.28;20.50;;;;;;;;;;5069271;28;20445;-64